Details From ZSNJ - Lukou
To VTSP - Phuket Intl
Flight Number -
Tags Generated
Created
Modified
Stats Distance 1,825 nm / 3,379 km
Max Altitude 0 ft / 0 m
Waypoints 5
Social Downloads 2
Likes 0
Share VATSIM

Download

Looking for another format? Having issues loading an existing format? Contact us
Advertisement - Login to hide

Notes

Generated

Route

ZSNJ NCH DIRAX PUT VTSP

ID Type Via Altitude Latitude Longitude Leg Dist Tot Dist Heading (true) Name
O ZSNJ APT - 0 ft / 0 m 31.73345˚ 118.84591˚ - 0 nm - -
NCH VOR - 0 ft / 0 m 28.88500˚ 115.91333˚ 228 nm 228 nm 222° / 221° CHANGBEI VOR-DME
DIRAX FIX - 0 ft / 0 m 11.00186˚ 100.54675˚ 1377 nm 1606 nm 222° / 217° -
PUT VOR - 0 ft / 0 m 8.11523˚ 98.30630˚ 218 nm 1824 nm 218° / 217° PHUKET VOR-DME
O VTSP APT - 0 ft / 0 m 8.11189˚ 98.30327˚ 0 nm 1824 nm 222° / 222° -

Altitude Profile

Advertisement - Login to hide

Weather


0- 5 10 15 20 25 30 35+ Temperature / ° C

Clouds and Precipitation
Forecast for 2017-12-15 18:00 UTC. Updated an hour ago

Ground ~20,000 ft ~40,000 ft Winds

ZSNJ

Details ICAO ZSNJ (NKG)
Name LUKOU
Region China
Timezone Asia/Shanghai (UTC+8.0)
Stats Elevation 49 ft / 15 m (AMSL)
Location 31.742041° 118.862024°
Runways 1
Magnetic Variation 5.596° W

METAR

ZSNJ 151400Z 02002MPS 340V050 4000 -RASN BR BKN011 OVC030 05/05 Q1032 NOSIG

Decode

TAF

Not found

Departure Runways

ID Width Length Bearing (true) Bearing (mag) Surface Threshold Offset Overrun Length
06 148 ft / 45 m 11,806 ft / 3,599 m 57.92° 63.52° Concrete 0 ft / 0 m 200 ft / 61 m
24 148 ft / 45 m 11,806 ft / 3,599 m 237.93° 243.53° Concrete 0 ft / 0 m 200 ft / 61 m

VTSP

Details ICAO VTSP (HKT)
Name Phuket Intl
Region Thailand
Timezone Asia/Bangkok (UTC+7.0)
Stats Elevation 82 ft / 25 m (AMSL)
Location 8.113199° 98.316871°
Runways 1
Magnetic Variation 0.433° W

METAR

VTSP 151430Z 00000KT 9999 FEW025 27/23 Q1014 NOSIG

Decode

TAF

TAF VTSP 151100Z 1512/1618 30008KT 9000 FEW020 BECMG 1521/1523 08006KT BECMG 1604/1606 30008KT 9999 TEMPO 1610/1614 VRB10G20KT 3000 TSRA FEW018CB SCT020 BKN100 BECMG 1614/1616 VRB02KT 8000

Decode

Destination Runways

ID Width Length Bearing (true) Bearing (mag) Surface Threshold Offset Overrun Length
09 148 ft / 45 m 9,870 ft / 3,008 m 84.45° 84.88° Asphalt 0 ft / 0 m 197 ft / 60 m
27 148 ft / 45 m 9,870 ft / 3,008 m 264.46° 264.89° Asphalt 0 ft / 0 m 197 ft / 60 m

Approach Navaids

Runway Type Ident Frequency Range Bearing (true) Bearing (mag) Slope Elevation
27 Localiser IPKT 109.90 MHz 18 nm / 33 km 263.45° 263.89° - 19 ft / 6 m (AMSL)
27 Glidescope IPKT 109.90 MHz 10 nm / 19 km 263.45° 263.89° 3.20° 82 ft / 25 m (AMSL)
27 DME IPKT 109.90 MHz 18 nm / 33 km - - - 82 ft / 25 m (AMSL)